Time;durP1;ratioP1;P1;durP2;ratioP2;P2;SDS_P1;SDS_P2;PMS_P1;PMS_P2;Temp;Humidity;BMP_temperature;BMP_pressure;BME280_temperature;BME280_humidity;BME280_pressure;Samples;Min_cycle;Max_cycle;Signal;HPM_P1;HPM_P2
2022/10/21 00:00:20;;;;;;;;;1.75;0.75;;;;;16.37;99.35;100480.88;4996607;28;49851;-71
2022/10/21 00:02:45;;;;;;;;;1.50;1.50;;;;;16.58;99.27;100515.16;4996873;28;49706;-71
2022/10/21 00:05:11;;;;;;;;;1.25;1.25;;;;;16.44;99.55;100493.19;4996992;28;49716;-72
2022/10/21 00:07:36;;;;;;;;;2.25;1.75;;;;;16.50;99.52;100505.50;4996766;28;50020;-72
2022/10/21 00:10:03;;;;;;;;;2.00;2.00;;;;;16.58;99.81;100519.56;4996688;28;49692;-71
2022/10/21 00:12:29;;;;;;;;;2.00;2.00;;;;;16.64;99.98;100532.78;4996704;28;50138;-72
2022/10/21 00:14:54;;;;;;;;;3.00;3.00;;;;;16.52;99.65;100515.22;4996764;28;49769;-72
2022/10/21 00:17:20;;;;;;;;;2.00;2.00;;;;;16.41;100.00;100495.00;4996785;28;49849;-72
2022/10/21 00:19:45;;;;;;;;;2.00;2.00;;;;;16.56;100.00;100519.59;4996257;28;60450;-72
2022/10/21 00:22:10;;;;;;;;;2.75;2.75;;;;;16.59;100.00;100513.38;4990049;28;49640;-72
2022/10/21 00:24:35;;;;;;;;;2.25;1.75;;;;;16.58;100.00;100509.84;4996692;28;50523;-74
2022/10/21 00:27:01;;;;;;;;;4.25;3.00;;;;;16.51;100.00;100505.50;4996255;28;56352;-72
2022/10/21 00:29:27;;;;;;;;;3.25;2.50;;;;;16.52;100.00;100511.69;4996369;28;51243;-72
2022/10/21 00:31:53;;;;;;;;;2.00;2.00;;;;;16.56;100.00;100501.03;4996564;28;49803;-71
2022/10/21 00:34:19;;;;;;;;;2.50;2.50;;;;;16.37;100.00;100478.22;4996322;28;49841;-71
2022/10/21 00:36:45;;;;;;;;;1.25;1.25;;;;;16.55;100.00;100504.59;4996290;28;50094;-71
2022/10/21 00:39:10;;;;;;;;;1.00;1.00;;;;;16.55;100.00;100501.94;4996080;28;50488;-73
2022/10/21 00:41:35;;;;;;;;;1.50;1.50;;;;;16.41;100.00;100476.44;4996235;28;49647;-72
2022/10/21 00:44:04;;;;;;;;;2.75;1.75;;;;;16.47;100.00;100485.22;4996748;28;49933;-72
2022/10/21 00:46:44;;;;;;;;;2.00;2.00;;;;;16.49;100.00;100490.50;4996768;28;49730;-73
2022/10/21 00:49:21;;;;;;;;;2.00;2.00;;;;;16.48;100.00;100494.03;4996139;28;49767;-72
2022/10/21 00:51:51;;;;;;;;;4.00;2.00;;;;;16.34;100.00;100472.09;4996007;28;49875;-72
2022/10/21 00:54:19;;;;;;;;;1.75;1.75;;;;;16.37;100.00;100480.00;4995876;28;49824;-72
2022/10/21 00:56:47;;;;;;;;;2.75;2.25;;;;;16.42;100.00;100483.50;4990069;28;49724;-72
2022/10/21 00:59:13;;;;;;;;;2.50;1.25;;;;;16.42;100.00;100479.09;4989662;28;50624;-71
2022/10/21 01:01:39;;;;;;;;;2.25;2.25;;;;;16.35;100.00;100473.84;4989797;28;49837;-72
2022/10/21 01:04:04;;;;;;;;;1.75;1.25;;;;;16.39;100.00;100475.56;4994354;28;49810;-72
2022/10/21 01:06:31;;;;;;;;;2.50;2.00;;;;;16.36;100.00;100465.88;4996324;28;49768;-72
2022/10/21 01:08:58;;;;;;;;;3.50;3.50;;;;;16.26;100.00;100448.28;4993325;28;49694;-72
2022/10/21 01:11:26;;;;;;;;;3.00;2.25;;;;;16.35;100.00;100461.47;4992492;28;49895;-72
2022/10/21 01:14:18;;;;;;;;;2.25;1.75;;;;;16.33;100.00;100442.06;4992751;28;49674;-73
2022/10/21 01:16:49;;;;;;;;;4.00;3.00;;;;;16.36;100.00;100442.03;5007834;28;50099;-71
2022/10/21 01:19:26;;;;;;;;;4.50;3.75;;;;;16.38;100.00;100437.59;4992329;28;50623;-72
2022/10/21 01:21:57;;;;;;;;;4.00;2.50;;;;;16.40;100.00;100433.16;4992398;28;49786;-72
2022/10/21 01:24:50;;;;;;;;;3.50;3.00;;;;;16.19;100.00;100398.91;4992774;28;49653;-72
2022/10/21 01:27:43;;;;;;;;;4.00;2.00;;;;;16.15;100.00;100383.94;4992695;28;49944;-73
2022/10/21 01:30:30;;;;;;;;;5.50;3.50;;;;;16.50;100.00;100429.56;4992343;28;50570;-72
2022/10/21 01:33:23;;;;;;;;;2.00;2.00;;;;;16.49;100.00;100433.06;4986296;28;49915;-72
2022/10/21 01:36:04;;;;;;;;;2.00;2.00;;;;;16.49;100.00;100433.06;4989826;28;49814;-72
2022/10/21 01:38:55;;;;;;;;;3.00;3.00;;;;;16.50;100.00;100428.66;4992300;28;49680;-72
2022/10/21 01:41:29;;;;;;;;;2.00;2.00;;;;;16.45;100.00;100407.50;4987679;28;51525;-75
2022/10/21 01:44:12;;;;;;;;;4.00;4.00;;;;;16.66;100.00;100442.66;4992042;28;49702;-72
2022/10/21 01:46:43;;;;;;;;;0.00;0.00;;;;;16.68;100.00;100443.53;4992265;28;49899;-72
2022/10/21 01:49:16;;;;;;;;;4.50;3.75;;;;;16.73;100.00;100458.53;4992290;28;50105;-71
2022/10/21 01:51:42;;;;;;;;;3.75;3.50;;;;;16.73;100.00;100447.06;4991734;28;49944;-73
2022/10/21 01:54:34;;;;;;;;;1.00;1.00;;;;;16.76;100.00;100439.94;4991884;28;49568;-72
2022/10/21 01:57:01;;;;;;;;;4.50;3.00;;;;;16.82;100.00;100450.50;4992372;28;50007;-75
2022/10/21 01:59:30;;;;;;;;;2.50;1.50;;;;;16.88;100.00;100468.09;4992284;28;49702;-75
2022/10/21 02:01:58;;;;;;;;;5.75;3.25;;;;;16.90;100.00;100490.19;4991761;28;50435;-72
2022/10/21 02:04:26;;;;;;;;;4.50;3.25;;;;;16.93;100.00;100527.28;5006720;28;49876;-74
2022/10/21 02:06:51;;;;;;;;;1.75;1.50;;;;;16.90;100.00;100529.97;4991667;28;49695;-72
2022/10/21 02:09:17;;;;;;;;;4.00;3.00;;;;;16.50;100.00;100473.69;4992059;28;49790;-73
2022/10/21 02:11:47;;;;;;;;;2.00;2.00;;;;;16.95;100.00;100538.75;5005400;28;67499;-71
2022/10/21 02:14:34;;;;;;;;;3.00;3.00;;;;;16.95;100.00;100540.53;4992030;28;49807;-72
2022/10/21 02:17:00;;;;;;;;;4.00;3.00;;;;;16.96;100.00;100539.63;4991533;28;49703;-74
2022/10/21 02:19:27;;;;;;;;;4.00;4.00;;;;;16.83;100.00;100515.00;4991411;28;49856;-74
2022/10/21 02:21:55;;;;;;;;;5.00;5.00;;;;;16.85;100.00;100511.44;4990174;28;50833;-72
2022/10/21 02:24:31;;;;;;;;;5.75;4.50;;;;;16.75;100.00;100469.13;4991622;28;49992;-73
2022/10/21 02:26:56;;;;;;;;;4.50;3.50;;;;;16.79;100.00;100479.69;4991764;28;49852;-73
2022/10/21 02:29:27;;;;;;;;;4.25;4.25;;;;;16.87;100.00;100499.03;4991848;28;49803;-72
2022/10/21 02:32:18;;;;;;;;;3.00;3.00;;;;;16.88;100.00;100478.69;4991557;28;50465;-72
2022/10/21 02:35:11;;;;;;;;;2.50;1.50;;;;;16.86;100.00;100441.59;4991561;28;49833;-72
2022/10/21 02:37:55;;;;;;;;;2.50;2.50;;;;;16.87;100.00;100426.56;4991302;28;49979;-72
2022/10/21 02:40:31;;;;;;;;;3.75;2.75;;;;;16.81;100.00;100392.19;4991448;28;49772;-72
2022/10/21 02:43:03;;;;;;;;;4.50;2.25;;;;;16.89;100.00;100414.22;4999080;28;51548;-71
2022/10/21 02:45:28;;;;;;;;;4.00;2.00;;;;;16.74;100.00;100387.84;4991267;28;50240;-72
2022/10/21 02:47:54;;;;;;;;;2.75;2.75;;;;;16.78;100.00;100378.94;4991354;28;49994;-72
2022/10/21 02:50:19;;;;;;;;;4.00;4.00;;;;;16.65;100.00;100345.50;4991587;28;50184;-73
2022/10/21 02:52:45;;;;;;;;;4.75;4.00;;;;;16.87;100.00;100379.72;4991029;28;49666;-71
2022/10/21 02:55:11;;;;;;;;;3.75;3.75;;;;;16.91;100.00;100379.72;4991174;28;49923;-74
2022/10/21 02:57:36;;;;;;;;;1.50;1.50;;;;;16.88;100.00;100377.97;4991360;28;50135;-73
2022/10/21 03:00:02;;;;;;;;;4.00;4.00;;;;;16.93;100.00;100380.56;4991037;28;50049;-73
2022/10/21 03:02:28;;;;;;;;;4.00;4.00;;;;;16.74;100.00;100348.09;4990814;28;51582;-74
2022/10/21 03:04:53;;;;;;;;;3.00;3.00;;;;;16.92;100.00;100378.81;4990797;28;53640;-72
2022/10/21 03:07:18;;;;;;;;;4.75;3.00;;;;;16.72;100.00;100342.81;4990357;28;61131;-73
2022/10/21 03:09:43;;;;;;;;;4.00;4.00;;;;;16.70;100.00;100357.84;4991115;28;49799;-72
2022/10/21 03:12:09;;;;;;;;;2.75;2.75;;;;;16.62;100.00;100346.41;4990474;28;64705;-72
2022/10/21 03:14:34;;;;;;;;;7.00;6.25;;;;;16.75;100.00;100382.53;4990441;28;61597;-71
2022/10/21 03:16:59;;;;;;;;;2.00;2.00;;;;;16.62;100.00;100370.28;4989564;28;49824;-74
2022/10/21 03:19:25;;;;;;;;;3.00;3.00;;;;;16.83;100.00;100427.50;4990869;28;50036;-72
2022/10/21 03:21:50;;;;;;;;;3.50;3.00;;;;;16.79;100.00;100425.78;4990205;28;49783;-73
2022/10/21 03:24:15;;;;;;;;;6.50;5.00;;;;;16.81;100.00;100429.31;4990236;28;66714;-71
2022/10/21 03:26:40;;;;;;;;;3.00;3.00;;;;;16.76;100.00;100418.72;4990879;28;49786;-72
2022/10/21 03:29:06;;;;;;;;;5.00;4.00;;;;;16.80;100.00;100435.50;4991180;28;50052;-71
2022/10/21 03:31:31;;;;;;;;;3.75;3.75;;;;;16.59;100.00;100402.94;4990145;28;53441;-71
2022/10/21 03:33:56;;;;;;;;;4.50;4.50;;;;;16.70;100.00;100413.50;4990591;28;49888;-72
2022/10/21 03:36:22;;;;;;;;;5.25;4.25;;;;;16.66;100.00;100413.50;4990334;28;50104;-74
2022/10/21 03:38:47;;;;;;;;;3.00;3.00;;;;;16.84;100.00;100431.91;4990758;28;50038;-71
2022/10/21 03:41:12;;;;;;;;;5.00;4.50;;;;;16.71;100.00;100409.09;4990415;28;49753;-74
2022/10/21 03:43:38;;;;;;;;;3.25;3.25;;;;;16.88;100.00;100428.34;4990847;28;49853;-74
2022/10/21 03:46:03;;;;;;;;;4.25;4.25;;;;;16.84;100.00;100429.28;4990955;28;49914;-71
2022/10/21 03:48:28;;;;;;;;;3.25;3.00;;;;;16.69;100.00;100416.16;4990887;28;50012;-72
2022/10/21 03:50:55;;;;;;;;;5.25;5.25;;;;;16.79;100.00;100437.28;4990225;28;49841;-74
2022/10/21 03:53:21;;;;;;;;;4.25;4.00;;;;;16.73;100.00;100415.25;4989818;28;49733;-73
2022/10/21 03:55:47;;;;;;;;;4.75;3.75;;;;;16.68;100.00;100403.75;4988566;28;49733;-73
2022/10/21 03:58:12;;;;;;;;;3.50;3.50;;;;;16.86;100.00;100459.28;4990863;28;49806;-74
2022/10/21 04:00:44;;;;;;;;;4.00;4.00;;;;;16.86;100.00;100448.69;4998569;28;50248;-73
2022/10/21 04:03:09;;;;;;;;;3.75;3.00;;;;;16.68;100.00;100427.63;4991747;28;49694;-74
2022/10/21 04:05:35;;;;;;;;;3.00;3.00;;;;;16.92;100.00;100466.31;4992602;28;49892;-73
2022/10/21 04:08:01;;;;;;;;;7.25;3.75;;;;;16.88;100.00;100465.44;4988810;28;49777;-72
2022/10/21 04:10:26;;;;;;;;;6.50;3.75;;;;;16.86;100.00;100472.53;4992580;28;51166;-74
2022/10/21 04:12:51;;;;;;;;;6.00;5.00;;;;;16.79;100.00;100465.53;4989163;28;49749;-74
2022/10/21 04:15:17;;;;;;;;;4.25;4.25;;;;;16.80;100.00;100460.25;4986422;28;55439;-73
2022/10/21 04:17:45;;;;;;;;;4.75;3.25;;;;;16.79;100.00;100458.50;5004697;28;50142;-73
2022/10/21 04:20:10;;;;;;;;;5.25;3.25;;;;;16.58;100.00;100429.47;4984851;28;49945;-73
2022/10/21 04:22:36;;;;;;;;;4.00;4.00;;;;;16.77;100.00;100454.94;4988854;28;49791;-74
2022/10/21 04:25:01;;;;;;;;;2.50;2.50;;;;;16.79;100.00;100454.94;4990198;28;49938;-73
2022/10/21 04:27:27;;;;;;;;;3.00;3.00;;;;;16.78;100.00;100447.88;4988933;28;49703;-73
2022/10/21 04:29:52;;;;;;;;;2.25;2.00;;;;;16.66;100.00;100440.88;4989299;28;51228;-73
2022/10/21 04:32:17;;;;;;;;;6.25;5.25;;;;;16.43;100.00;100400.47;4983039;28;49814;-74
2022/10/21 04:34:44;;;;;;;;;4.00;3.75;;;;;17.01;100.00;100464.44;4988284;28;49717;-73
2022/10/21 04:37:10;;;;;;;;;5.50;5.00;;;;;16.46;100.00;100405.75;4986462;28;49873;-72
2022/10/21 04:39:35;;;;;;;;;6.50;5.00;;;;;16.90;100.00;100466.34;4988866;28;51050;-72
2022/10/21 04:42:00;;;;;;;;;6.00;4.00;;;;;16.83;100.00;100467.28;4989353;28;61067;-72
2022/10/21 04:44:26;;;;;;;;;4.00;3.00;;;;;16.68;100.00;100444.44;4991588;28;49844;-72
2022/10/21 04:46:51;;;;;;;;;6.75;4.25;;;;;16.62;100.00;100449.78;4993269;28;49883;-73
2022/10/21 04:49:17;;;;;;;;;4.25;4.25;;;;;16.83;100.00;100475.22;4992821;28;50675;-72
2022/10/21 04:51:42;;;;;;;;;5.75;4.50;;;;;16.84;100.00;100472.56;4992962;28;49939;-72
2022/10/21 04:54:07;;;;;;;;;6.50;5.75;;;;;16.81;100.00;100458.47;4993351;28;49762;-72
2022/10/21 04:56:32;;;;;;;;;4.25;4.25;;;;;16.83;100.00;100470.81;4992053;28;50038;-76
2022/10/21 04:58:58;;;;;;;;;7.00;6.00;;;;;16.80;100.00;100468.19;4992892;28;68500;-75
2022/10/21 05:01:23;;;;;;;;;3.25;3.25;;;;;16.83;100.00;100469.94;4988613;28;49788;-74
2022/10/21 05:03:49;;;;;;;;;6.00;5.50;;;;;16.31;100.00;100381.16;4990217;28;49958;-75
2022/10/21 05:06:14;;;;;;;;;7.50;7.50;;;;;16.41;100.00;100419.03;4992978;28;49902;-74
2022/10/21 05:08:39;;;;;;;;;4.00;4.00;;;;;15.59;100.00;100292.56;4991961;28;70865;-77
2022/10/21 05:11:05;;;;;;;;;4.25;4.25;;;;;16.83;100.00;100464.63;4993106;28;49663;-78
2022/10/21 05:13:30;;;;;;;;;6.00;4.75;;;;;16.72;100.00;100455.91;4992519;28;57233;-76
2022/10/21 05:16:00;;;;;;;;;6.00;5.00;;;;;16.85;100.00;100474.31;4993184;28;49939;-77
2022/10/21 05:18:26;;;;;;;;;4.50;3.50;;;;;16.70;100.00;100465.66;4992771;28;50547;-78
2022/10/21 05:20:53;;;;;;;;;5.50;5.50;;;;;16.50;100.00;100418.97;4993067;28;49747;-81
2022/10/21 05:23:18;;;;;;;;;6.50;6.50;;;;;16.54;100.00;100456.91;4993097;28;49810;-77
2022/10/21 05:25:44;;;;;;;;;7.75;6.50;;;;;16.90;100.00;100486.66;5007857;28;49911;-75
2022/10/21 05:28:10;;;;;;;;;8.25;7.25;;;;;16.89;100.00;100485.78;4992484;28;50067;-77
2022/10/21 05:30:36;;;;;;;;;4.25;4.25;;;;;16.90;100.00;100502.56;4992631;28;49819;-76
2022/10/21 05:33:01;;;;;;;;;6.50;5.25;;;;;16.38;100.00;100407.56;4995365;28;49891;-80
2022/10/21 05:35:26;;;;;;;;;6.75;5.00;;;;;16.57;100.00;100435.66;4993133;28;49764;-76
2022/10/21 05:37:52;;;;;;;;;5.00;4.75;;;;;16.89;100.00;100488.44;4992255;28;49896;-78
2022/10/21 05:40:32;;;;;;;;;5.00;5.00;;;;;16.92;100.00;100498.13;4994723;28;49809;-85
2022/10/21 05:42:57;;;;;;;;;6.50;5.00;;;;;16.58;100.00;100456.84;4994963;28;49923;-79
2022/10/21 05:45:23;;;;;;;;;6.75;5.75;;;;;16.91;100.00;100483.13;4992518;28;49968;-81
2022/10/21 05:47:48;;;;;;;;;8.00;7.75;;;;;16.23;100.00;100383.00;4992601;28;50877;-76
2022/10/21 05:50:14;;;;;;;;;6.50;6.00;;;;;16.68;100.00;100455.03;4936888;28;50976;-75
2022/10/21 05:52:39;;;;;;;;;6.75;6.00;;;;;16.89;100.00;100483.16;4979413;28;50316;-75
2022/10/21 05:55:07;;;;;;;;;5.00;5.00;;;;;16.89;100.00;100493.75;4983546;28;49769;-75
2022/10/21 05:57:33;;;;;;;;;6.00;6.00;;;;;16.87;100.00;100483.13;4982640;28;49967;-75
2022/10/21 05:59:59;;;;;;;;;6.50;6.00;;;;;16.54;100.00;100446.31;4998045;28;49789;-74
2022/10/21 06:02:24;;;;;;;;;3.00;3.00;;;;;16.86;100.00;100505.25;4982746;28;49780;-75
2022/10/21 06:04:49;;;;;;;;;7.50;7.50;;;;;16.51;100.00;100443.69;4985413;28;49849;-75
2022/10/21 06:07:15;;;;;;;;;8.25;6.25;;;;;16.87;100.00;100512.28;4990707;28;49801;-76
2022/10/21 06:09:43;;;;;;;;;1.50;1.00;;;;;16.68;100.00;100492.13;4991624;28;60210;-82
2022/10/21 06:12:09;;;;;;;;;3.00;3.00;;;;;16.89;100.00;100557.38;4992136;28;49760;-75
2022/10/21 06:14:35;;;;;;;;;4.50;3.00;;;;;16.90;100.00;100539.69;4992009;28;50089;-75
2022/10/21 06:17:03;;;;;;;;;2.25;1.50;;;;;16.60;100.00;100500.16;4991714;28;49781;-75
2022/10/21 06:19:29;;;;;;;;;4.00;4.00;;;;;16.53;100.00;100487.81;4991681;28;49752;-76
2022/10/21 06:21:55;;;;;;;;;5.75;2.00;;;;;16.93;100.00;100576.78;4991455;28;49488;-76
2022/10/21 06:24:21;;;;;;;;;3.50;3.50;;;;;16.80;100.00;100553.03;4991741;28;49711;-76
2022/10/21 06:26:49;;;;;;;;;4.50;4.50;;;;;16.79;100.00;100561.88;4991719;28;49984;-77
2022/10/21 06:29:15;;;;;;;;;5.75;4.75;;;;;16.58;100.00;100504.56;4991813;28;50186;-76
2022/10/21 06:31:40;;;;;;;;;4.50;4.50;;;;;16.10;100.00;100441.34;4991676;28;50238;-76
2022/10/21 06:34:05;;;;;;;;;4.75;4.50;;;;;16.93;100.00;100564.41;4990757;28;49798;-76
2022/10/21 06:36:31;;;;;;;;;3.25;3.00;;;;;16.43;100.00;100475.53;4990540;28;49714;-76
2022/10/21 06:38:56;;;;;;;;;4.00;3.00;;;;;16.59;100.00;100519.56;4991310;28;49760;-76
2022/10/21 06:41:22;;;;;;;;;5.00;3.50;;;;;17.01;100.00;100567.88;4991347;28;49776;-76
2022/10/21 06:43:47;;;;;;;;;5.50;4.00;;;;;16.56;100.00;100506.34;4991684;28;49891;-76
2022/10/21 06:46:14;;;;;;;;;2.50;2.50;;;;;16.63;100.00;100488.63;4991210;28;50041;-76
2022/10/21 06:48:40;;;;;;;;;5.50;3.00;;;;;16.83;100.00;100525.59;4991255;28;49825;-77
2022/10/21 06:51:08;;;;;;;;;1.75;1.75;;;;;16.44;100.00;100479.94;4984760;28;49936;-77
2022/10/21 06:53:35;;;;;;;;;2.00;2.00;;;;;16.78;100.00;100553.91;4984716;28;49998;-76
2022/10/21 06:56:06;;;;;;;;;4.00;4.00;;;;;16.89;100.00;100607.75;4990854;28;50965;-74
2022/10/21 06:58:33;;;;;;;;;5.00;3.50;;;;;16.90;100.00;100612.16;4985031;28;49845;-74
2022/10/21 07:00:58;;;;;;;;;2.00;2.00;;;;;16.83;100.00;100594.53;4984699;28;49845;-74
2022/10/21 07:03:24;;;;;;;;;3.25;3.00;;;;;16.27;100.00;100490.66;4991233;28;50163;-77
2022/10/21 07:05:56;;;;;;;;;3.50;3.00;;;;;16.87;100.00;100588.31;4990779;28;50627;-76
2022/10/21 07:08:22;;;;;;;;;2.50;2.50;;;;;16.77;100.00;100578.66;4990442;28;49797;-76
2022/10/21 07:10:47;;;;;;;;;3.50;2.25;;;;;15.52;100.00;100383.44;4989244;28;50067;-76
2022/10/21 07:13:12;;;;;;;;;5.50;3.00;;;;;16.86;100.00;100597.16;4991138;28;50114;-76
2022/10/21 07:15:38;;;;;;;;;3.00;3.00;;;;;16.79;100.00;100598.06;4990641;28;51141;-76
2022/10/21 07:18:03;;;;;;;;;4.25;4.25;;;;;16.80;100.00;100568.94;4990625;28;49662;-76
2022/10/21 07:20:29;;;;;;;;;4.00;4.00;;;;;16.57;100.00;100529.28;4990935;28;49896;-76
2022/10/21 07:22:54;;;;;;;;;4.25;4.00;;;;;16.87;100.00;100605.09;4990946;28;49710;-75
2022/10/21 07:25:19;;;;;;;;;6.25;4.75;;;;;16.81;100.00;100625.47;4990808;28;49776;-76
2022/10/21 07:27:47;;;;;;;;;4.00;4.00;;;;;16.69;100.00;100630.84;4990670;28;49860;-77
2022/10/21 07:30:12;;;;;;;;;4.00;4.00;;;;;16.90;100.00;100635.16;4990837;28;49802;-76
2022/10/21 07:32:41;;;;;;;;;2.75;2.25;;;;;16.81;100.00;100626.38;4990539;28;49986;-77
2022/10/21 07:35:06;;;;;;;;;4.00;4.00;;;;;16.93;100.00;100648.38;4990377;28;49850;-75
2022/10/21 07:37:32;;;;;;;;;5.75;4.00;;;;;16.67;100.00;100604.31;4990135;28;49786;-76
2022/10/21 07:39:57;;;;;;;;;2.00;2.00;;;;;16.22;100.00;100505.72;4990719;28;50209;-76
2022/10/21 07:42:23;;;;;;;;;4.75;3.25;;;;;16.42;100.00;100532.06;4990910;28;50031;-76
2022/10/21 07:44:51;;;;;;;;;3.00;3.00;;;;;17.00;100.00;100648.31;4990404;28;50460;-76
2022/10/21 07:47:17;;;;;;;;;3.00;2.00;;;;;16.97;100.00;100627.13;4990679;28;49691;-76
2022/10/21 07:49:43;;;;;;;;;4.75;4.50;;;;;16.80;100.00;100599.88;4990325;28;49750;-76
2022/10/21 07:52:08;;;;;;;;;3.50;3.25;;;;;17.09;100.00;100648.25;4990302;28;49650;-76
2022/10/21 07:54:33;;;;;;;;;5.00;3.00;;;;;17.09;100.00;100658.88;4989620;28;58357;-77
2022/10/21 07:56:59;;;;;;;;;6.00;4.00;;;;;17.13;100.00;100659.72;4990390;28;49614;-76
2022/10/21 07:59:24;;;;;;;;;2.50;2.50;;;;;17.17;100.00;100670.28;4990125;28;50074;-76
2022/10/21 08:01:51;;;;;;;;;5.25;5.00;;;;;17.00;100.00;100621.81;4990740;28;49884;-76
2022/10/21 08:04:19;;;;;;;;;3.50;3.50;;;;;16.88;100.00;100590.94;4983996;28;49678;-76
2022/10/21 08:06:46;;;;;;;;;3.50;3.50;;;;;17.42;100.00;100657.69;4989932;28;49652;-76
2022/10/21 08:09:12;;;;;;;;;3.00;3.00;;;;;17.53;100.00;100664.69;4989936;28;49836;-76
2022/10/21 08:11:38;;;;;;;;;4.75;4.75;;;;;17.54;100.00;100647.84;4990382;28;50057;-76
2022/10/21 08:14:08;;;;;;;;;4.00;4.00;;;;;17.14;100.00;100596.03;4990001;28;50328;-76
2022/10/21 08:16:34;;;;;;;;;4.75;4.50;;;;;17.22;100.00;100563.25;4990182;28;50079;-76
2022/10/21 08:19:00;;;;;;;;;5.25;2.00;;;;;17.82;100.00;100664.44;4992686;28;49866;-76
2022/10/21 08:21:26;;;;;;;;;6.00;5.00;;;;;17.92;100.00;100668.75;4993534;28;49913;-76
2022/10/21 08:23:52;;;;;;;;;9.00;8.75;;;;;18.02;100.00;100675.72;4993253;28;49711;-76
2022/10/21 08:26:17;;;;;;;;;4.50;4.50;;;;;17.83;100.00;100621.03;4993441;28;50033;-76
2022/10/21 08:28:43;;;;;;;;;5.75;4.75;;;;;18.11;100.00;100645.53;4993445;28;49862;-75
2022/10/21 08:31:17;;;;;;;;;4.25;4.25;;;;;18.35;100.00;100668.28;4993803;28;49726;-76
2022/10/21 08:33:42;;;;;;;;;8.25;5.00;;;;;17.81;100.00;100570.63;4993255;28;50433;-76
2022/10/21 08:36:12;;;;;;;;;5.00;4.50;;;;;18.21;100.00;100653.34;4991898;28;49698;-76
2022/10/21 08:38:37;;;;;;;;;5.00;3.00;;;;;18.11;100.00;100637.53;4991674;28;50039;-76
2022/10/21 08:41:15;;;;;;;;;4.00;3.50;;;;;18.18;100.00;100657.84;4993539;28;50015;-77
2022/10/21 08:43:42;;;;;;;;;4.00;3.00;;;;;17.90;100.00;100610.34;4993239;28;50851;-77
2022/10/21 08:46:14;;;;;;;;;4.75;4.00;;;;;17.35;100.00;100549.84;4992988;28;49870;-77
2022/10/21 08:48:52;;;;;;;;;3.00;3.00;;;;;18.16;100.00;100668.50;4986556;28;49929;-77
2022/10/21 08:51:52;;;;;;;;;3.50;3.50;;;;;18.13;100.00;100662.31;4993046;28;49579;-77
2022/10/21 08:54:24;;;;;;;;;2.75;2.75;;;;;18.12;100.00;100668.53;4992610;28;49781;-77
2022/10/21 08:56:55;;;;;;;;;3.25;2.25;;;;;18.04;100.00;100657.97;4993106;28;49750;-77
2022/10/21 08:59:23;;;;;;;;;5.00;5.00;;;;;18.14;100.00;100670.25;4992849;28;49927;-77
2022/10/21 09:01:58;;;;;;;;;4.50;4.25;;;;;18.02;100.00;100634.09;4993180;28;49932;-78
2022/10/21 09:04:31;;;;;;;;;3.75;2.25;;;;;17.72;100.00;100568.94;4992661;28;50038;-76
2022/10/21 09:07:12;;;;;;;;;3.75;2.75;;;;;18.40;100.00;100677.03;4992706;28;50019;-77
2022/10/21 09:09:42;;;;;;;;;3.00;3.00;;;;;18.41;100.00;100663.72;4992916;28;49752;-77
2022/10/21 09:12:52;;;;;;;;;3.00;3.00;;;;;18.49;100.00;100664.53;4992924;28;49848;-76
2022/10/21 09:15:26;;;;;;;;;0.50;0.50;;;;;18.49;100.00;100660.97;4992557;28;50788;-77
2022/10/21 09:18:29;;;;;;;;;3.50;3.50;;;;;18.47;100.00;100666.31;4992404;28;49995;-76
2022/10/21 09:21:03;;;;;;;;;2.75;2.75;;;;;18.46;100.00;100663.69;4992616;28;49779;-77
2022/10/21 09:24:10;;;;;;;;;4.75;4.00;;;;;18.50;100.00;100657.41;4992928;28;50054;-77
2022/10/21 09:26:41;;;;;;;;;2.75;2.75;;;;;18.62;100.00;100654.59;4991704;28;49960;-76
2022/10/21 09:29:33;;;;;;;;;5.50;4.00;;;;;18.68;100.00;100622.63;4992064;28;50090;-76
2022/10/21 09:32:20;;;;;;;;;2.00;2.00;;;;;19.07;100.00;100642.44;4992327;28;49945;-76
2022/10/21 09:34:56;;;;;;;;;4.25;4.00;;;;;19.20;100.00;100651.09;4992499;28;49985;-77
2022/10/21 09:37:29;;;;;;;;;4.00;2.50;;;;;19.21;100.00;100652.88;4991861;28;51505;-77
2022/10/21 09:40:02;;;;;;;;;3.50;3.00;;;;;19.06;100.00;100616.72;4992230;28;50002;-76
2022/10/21 09:42:27;;;;;;;;;2.00;2.00;;;;;18.17;100.00;100478.09;4992463;28;49881;-76
2022/10/21 09:44:52;;;;;;;;;4.25;3.25;;;;;18.32;100.00;100491.13;4992422;28;50327;-78
2022/10/21 09:47:23;;;;;;;;;2.50;2.00;;;;;19.22;100.00;100673.25;4990919;28;51846;-77
2022/10/21 09:49:57;;;;;;;;;3.50;2.25;;;;;19.22;100.00;100643.97;4992079;28;49789;-76
2022/10/21 09:52:29;;;;;;;;;3.75;3.75;;;;;18.98;100.00;100607.13;4991876;28;50025;-76
2022/10/21 09:54:55;;;;;;;;;3.50;3.50;;;;;19.04;100.00;100615.00;4991902;28;49753;-76
2022/10/21 09:57:39;;;;;;;;;5.25;5.25;;;;;19.12;100.00;100639.72;4991636;28;50342;-77
2022/10/21 10:00:05;;;;;;;;;4.50;3.75;;;;;19.14;100.00;100652.09;4991884;28;49873;-77
2022/10/21 10:02:36;;;;;;;;;4.00;4.00;;;;;19.08;100.00;100645.97;4992035;28;49622;-76
2022/10/21 10:05:35;;;;;;;;;4.75;4.75;;;;;19.17;100.00;100659.13;4992274;28;50018;-76
2022/10/21 10:08:27;;;;;;;;;5.50;4.25;;;;;19.08;100.00;100635.31;4991500;28;50670;-76
2022/10/21 10:11:09;;;;;;;;;6.00;5.00;;;;;19.28;100.00;100665.16;4990662;28;49828;-76
2022/10/21 10:13:41;;;;;;;;;2.75;1.75;;;;;18.99;100.00;100615.06;4987050;28;49892;-77
2022/10/21 10:16:31;;;;;;;;;5.50;3.25;;;;;19.30;100.00;100659.78;4991914;28;49997;-77
2022/10/21 10:19:17;;;;;;;;;8.00;3.00;;;;;19.37;100.00;100657.00;4986246;28;50751;-77
2022/10/21 10:21:43;;;;;;;;;4.50;3.75;;;;;18.13;100.00;100463.06;4991306;28;49750;-77
2022/10/21 10:24:18;;;;;;;;;5.50;3.75;;;;;19.49;100.00;100658.56;4991912;28;49821;-77
2022/10/21 10:26:44;;;;;;;;;4.00;3.00;;;;;18.99;100.00;100582.25;4991982;28;49979;-77
2022/10/21 10:29:27;;;;;;;;;4.75;3.25;;;;;19.54;99.33;100662.06;4991445;28;49843;-77
2022/10/21 10:31:59;;;;;;;;;2.50;1.50;;;;;19.62;99.08;100665.50;4991583;28;50010;-76
2022/10/21 10:34:35;;;;;;;;;3.75;3.00;;;;;19.43;97.78;100638.28;4991277;28;49813;-77
2022/10/21 10:37:17;;;;;;;;;3.50;3.50;;;;;19.32;97.12;100626.94;4991409;28;49746;-77
2022/10/21 10:39:46;;;;;;;;;5.00;2.00;;;;;19.19;96.05;100605.88;4985153;28;50497;-76
2022/10/21 10:42:17;;;;;;;;;4.00;4.00;;;;;19.45;96.13;100640.91;4969805;28;50218;-74
2022/10/21 10:44:43;;;;;;;;;4.25;3.00;;;;;19.48;99.03;100648.84;4991588;28;49738;-75
2022/10/21 10:47:21;;;;;;;;;6.00;3.25;;;;;19.13;98.09;100605.09;4991468;28;49861;-75
2022/10/21 10:49:49;;;;;;;;;3.75;3.75;;;;;19.42;98.30;100648.97;4991072;28;51015;-76
2022/10/21 10:52:21;;;;;;;;;4.25;3.75;;;;;19.49;97.28;100647.06;4993374;28;49907;-75
2022/10/21 10:54:48;;;;;;;;;3.50;3.00;;;;;19.29;98.80;100615.47;4991865;28;49769;-78
2022/10/21 10:57:24;;;;;;;;;5.50;4.00;;;;;18.64;96.13;100500.38;4989968;28;50075;-77
2022/10/21 10:59:55;;;;;;;;;4.25;3.25;;;;;19.57;95.18;100642.50;5005938;28;50525;-75
2022/10/21 11:02:42;;;;;;;;;4.00;4.00;;;;;19.60;94.39;100650.47;4989669;28;49822;-74
2022/10/21 11:05:40;;;;;;;;;3.50;3.50;;;;;19.32;93.01;100579.03;4989757;28;49934;-75
2022/10/21 11:08:14;;;;;;;;;2.25;2.25;;;;;19.54;91.44;100627.44;4956693;28;49880;-74
2022/10/21 11:10:53;;;;;;;;;4.00;3.50;;;;;19.78;89.37;100627.91;4989159;28;51618;-75
2022/10/21 11:13:21;;;;;;;;;5.00;2.50;;;;;19.85;88.54;100650.88;4990645;28;49723;-75
2022/10/21 11:16:24;;;;;;;;;5.50;4.00;;;;;19.89;86.83;100632.16;4990648;28;49774;-75
2022/10/21 11:19:00;;;;;;;;;3.25;2.25;;;;;19.67;86.33;100589.03;4989863;28;49821;-75
2022/10/21 11:21:41;;;;;;;;;3.00;3.00;;;;;19.99;86.20;100635.50;4989403;28;51035;-75
2022/10/21 11:24:19;;;;;;;;;4.25;4.00;;;;;20.05;84.32;100643.38;4989699;28;49791;-78
2022/10/21 11:26:56;;;;;;;;;2.75;2.75;;;;;19.20;81.64;100491.41;4990744;28;49772;-75
2022/10/21 11:29:43;;;;;;;;;0.00;0.00;;;;;20.15;78.66;100623.59;4990868;28;49907;-74
2022/10/21 11:32:30;;;;;;;;;2.00;2.00;;;;;20.26;80.45;100618.94;4990241;28;50632;-75